createdAt,value
2023-02-04T00:00:02.267Z,18.25
2023-02-04T00:02:28.732Z,18.20
2023-02-04T00:04:55.272Z,20.00
2023-02-04T00:07:21.865Z,23.35
2023-02-04T00:09:49.981Z,16.83
2023-02-04T00:12:17.197Z,25.35
2023-02-04T00:14:50.503Z,14.88
2023-02-04T00:17:17.112Z,16.52
2023-02-04T00:19:43.890Z,21.85
2023-02-04T00:22:10.541Z,16.80
2023-02-04T00:24:37.895Z,19.73
2023-02-04T00:27:06.516Z,16.83
2023-02-04T00:29:33.115Z,13.07
2023-02-04T00:31:59.709Z,17.40
2023-02-04T00:34:26.453Z,13.00
2023-02-04T00:36:52.938Z,21.60
2023-02-04T00:39:19.391Z,16.55
2023-02-04T00:41:45.887Z,18.92
2023-02-04T00:44:14.135Z,15.38
2023-02-04T00:46:42.652Z,15.02
2023-02-04T00:49:10.889Z,15.23
2023-02-04T00:51:40.968Z,14.45
2023-02-04T00:54:07.886Z,11.43
2023-02-04T00:56:35.207Z,26.33
2023-02-04T00:59:02.208Z,15.90
2023-02-04T01:01:28.886Z,17.17
2023-02-04T01:03:55.506Z,17.73
2023-02-04T01:06:22.584Z,20.17
2023-02-04T01:08:49.073Z,14.57
2023-02-04T01:11:16.210Z,23.30
2023-02-04T01:13:42.794Z,15.93
2023-02-04T01:16:09.727Z,18.90
2023-02-04T01:18:36.732Z,20.77
2023-02-04T01:21:03.420Z,14.90
2023-02-04T01:23:29.872Z,14.75
2023-02-04T01:25:57.160Z,18.02
2023-02-04T01:28:23.760Z,18.80
2023-02-04T01:30:50.415Z,15.45
2023-02-04T01:33:17.733Z,16.85
2023-02-04T01:35:44.297Z,23.65
2023-02-04T01:38:12.501Z,12.43
2023-02-04T01:40:39.546Z,19.85
2023-02-04T01:43:06.203Z,20.83
2023-02-04T01:45:36.629Z,13.35
2023-02-04T01:48:08.322Z,17.80
2023-02-04T01:50:35.298Z,16.23
2023-02-04T01:53:02.584Z,11.48
2023-02-04T01:55:32.475Z,15.88
2023-02-04T01:57:59.197Z,16.63
2023-02-04T02:00:32.060Z,18.15
2023-02-04T02:02:59.975Z,16.02
2023-02-04T02:05:45.534Z,23.73
2023-02-04T02:08:13.357Z,13.27
2023-02-04T02:10:42.020Z,15.23
2023-02-04T02:13:11.681Z,14.27
2023-02-04T02:15:39.647Z,24.42
2023-02-04T02:18:13.399Z,15.77
2023-02-04T02:20:39.965Z,12.35
2023-02-04T02:23:21.106Z,16.85
2023-02-04T02:25:48.747Z,14.55
2023-02-04T02:28:18.917Z,23.80
2023-02-04T02:30:46.864Z,14.95
2023-02-04T02:33:17.795Z,13.80
2023-02-04T02:35:48.643Z,22.08
2023-02-04T02:38:20.099Z,19.08
2023-02-04T02:40:48.039Z,15.00
2023-02-04T02:43:21.712Z,11.40
2023-02-04T02:48:15.812Z,10.05
2023-02-04T02:50:43.619Z,13.50
2023-02-04T02:53:12.754Z,17.17
2023-02-04T02:55:39.704Z,13.65
2023-02-04T02:58:14.740Z,14.00
2023-02-04T03:00:41.435Z,5.63
2023-02-04T03:03:18.287Z,13.20
2023-02-04T03:05:48.281Z,18.73
2023-02-04T03:08:16.996Z,13.63
2023-02-04T03:10:45.319Z,9.48
2023-02-04T03:13:14.150Z,16.52
2023-02-04T03:15:42.869Z,14.70
2023-02-04T03:18:10.207Z,12.10
2023-02-04T03:20:37.801Z,12.60
2023-02-04T03:23:04.470Z,16.27
2023-02-04T03:25:31.599Z,15.57
2023-02-04T03:27:59.413Z,12.98
2023-02-04T03:30:26.747Z,9.55
2023-02-04T03:32:54.098Z,11.80
2023-02-04T03:35:21.287Z,12.70
2023-02-04T03:37:47.891Z,10.35
2023-02-04T03:40:14.852Z,14.30
2023-02-04T03:42:41.412Z,10.73
2023-02-04T03:45:08.535Z,12.80
2023-02-04T03:47:35.248Z,16.95
2023-02-04T03:50:01.736Z,10.48
2023-02-04T03:52:28.312Z,16.30
2023-02-04T03:54:54.848Z,16.45
2023-02-04T03:57:21.853Z,13.50
2023-02-04T03:59:48.805Z,12.95
2023-02-04T04:02:15.291Z,11.75
2023-02-04T04:04:41.793Z,12.30
2023-02-04T04:07:08.522Z,16.33
2023-02-04T04:09:36.428Z,16.90
2023-02-04T04:12:04.606Z,14.60
2023-02-04T04:14:31.052Z,11.27
2023-02-04T04:16:57.899Z,12.90
2023-02-04T04:19:24.963Z,11.60
2023-02-04T04:21:51.476Z,6.13
2023-02-04T04:24:18.006Z,2.95
2023-02-04T04:26:44.442Z,3.42
2023-02-04T04:29:10.862Z,1.17
2023-02-04T04:31:37.682Z,2.00
2023-02-04T04:34:04.269Z,2.38
2023-02-04T04:36:31.104Z,0.57
2023-02-04T04:38:57.616Z,2.15
2023-02-04T04:41:24.211Z,0.65
2023-02-04T04:43:51.480Z,0.95
2023-02-04T04:46:18.063Z,0.47
2023-02-04T04:48:44.503Z,0.30
2023-02-04T04:51:11.091Z,1.65
2023-02-04T04:53:37.599Z,0.73
2023-02-04T04:56:04.355Z,1.88
2023-02-04T04:58:30.987Z,0.57
2023-02-04T05:00:57.506Z,2.72
2023-02-04T05:03:23.955Z,0.50
2023-02-04T05:05:51.183Z,1.85
2023-02-04T05:08:19.395Z,1.00
2023-02-04T05:10:45.873Z,1.33
2023-02-04T05:13:12.382Z,1.55
2023-02-04T05:15:47.198Z,3.47
2023-02-04T05:18:13.839Z,1.85
2023-02-04T05:20:40.394Z,1.20
2023-02-04T05:23:07.000Z,2.05
2023-02-04T05:25:33.723Z,0.90
2023-02-04T05:28:00.860Z,1.00
2023-02-04T05:30:27.347Z,1.77
2023-02-04T05:32:53.825Z,1.27
2023-02-04T05:35:23.210Z,1.15
2023-02-04T05:37:49.788Z,3.72
2023-02-04T05:40:16.364Z,1.27
2023-02-04T05:42:43.732Z,0.60
2023-02-04T05:45:14.984Z,1.10
2023-02-04T05:47:41.412Z,1.60
2023-02-04T05:50:08.872Z,2.30
2023-02-04T05:52:35.319Z,2.45
2023-02-04T05:55:01.876Z,2.17
2023-02-04T05:57:28.317Z,1.92
2023-02-04T05:59:54.889Z,1.15
2023-02-04T06:02:21.340Z,3.53
2023-02-04T06:04:47.789Z,2.38
2023-02-04T06:07:14.234Z,2.05
2023-02-04T06:09:40.759Z,2.63
2023-02-04T06:12:07.218Z,1.50
2023-02-04T06:14:33.659Z,22.67
2023-02-04T06:17:00.132Z,7.32
2023-02-04T06:19:26.574Z,4.38
2023-02-04T06:21:55.934Z,1.25
2023-02-04T06:24:22.555Z,2.75
2023-02-04T06:26:49.018Z,1.80
2023-02-04T06:29:15.620Z,2.45
2023-02-04T06:31:42.403Z,2.90
2023-02-04T06:34:08.865Z,4.35
2023-02-04T06:36:35.290Z,2.22
2023-02-04T06:39:01.715Z,2.42
2023-02-04T06:41:28.139Z,3.40
2023-02-04T06:43:54.583Z,3.80
2023-02-04T06:46:21.075Z,3.05
2023-02-04T06:48:47.632Z,2.58
2023-02-04T06:51:14.234Z,2.13
2023-02-04T06:53:44.013Z,1.67
2023-02-04T06:56:11.217Z,4.85
2023-02-04T06:58:38.297Z,2.08
2023-02-04T07:01:08.615Z,3.95
2023-02-04T07:03:35.120Z,4.15
2023-02-04T07:06:01.613Z,2.55
2023-02-04T07:08:28.136Z,5.05
2023-02-04T07:10:54.572Z,10.30
2023-02-04T07:13:20.989Z,2.03
2023-02-04T07:15:47.450Z,3.40
2023-02-04T07:18:14.077Z,3.28
2023-02-04T07:20:40.497Z,2.03
2023-02-04T07:23:06.984Z,2.90
2023-02-04T07:25:33.389Z,2.35
2023-02-04T07:28:02.132Z,3.60
2023-02-04T07:30:28.659Z,2.97
2023-02-04T07:32:55.103Z,5.38
2023-02-04T07:35:21.632Z,6.53
2023-02-04T07:37:48.170Z,7.28
2023-02-04T07:40:14.674Z,22.25
2023-02-04T07:42:41.183Z,13.02
2023-02-04T07:45:08.316Z,3.92
2023-02-04T07:47:34.745Z,6.55
2023-02-04T07:50:01.239Z,4.40
2023-02-04T07:52:27.676Z,2.22
2023-02-04T07:54:54.126Z,3.45
2023-02-04T07:57:20.649Z,3.25
2023-02-04T07:59:47.688Z,4.30
2023-02-04T08:02:14.093Z,6.75
2023-02-04T08:04:40.644Z,5.80
2023-02-04T08:07:07.465Z,3.60
2023-02-04T08:09:34.156Z,4.57
2023-02-04T08:12:00.592Z,4.55
2023-02-04T08:14:27.040Z,1.70
2023-02-04T08:16:53.456Z,1.42
2023-02-04T08:19:21.529Z,1.90
2023-02-04T08:21:48.754Z,4.43
2023-02-04T08:24:16.311Z,1.98
2023-02-04T08:26:43.788Z,1.13
2023-02-04T08:29:10.401Z,2.38
2023-02-04T08:31:37.765Z,2.10
2023-02-04T08:34:05.742Z,2.88
2023-02-04T08:36:32.479Z,2.75
2023-02-04T08:38:58.937Z,2.50
2023-02-04T08:41:25.379Z,1.48
2023-02-04T08:43:51.815Z,2.70
2023-02-04T08:46:18.718Z,2.83
2023-02-04T08:48:45.307Z,3.33
2023-02-04T08:51:11.900Z,4.18
2023-02-04T08:53:40.272Z,1.83
2023-02-04T08:56:08.928Z,9.70
2023-02-04T08:58:35.481Z,5.20
2023-02-04T09:01:02.771Z,2.55
2023-02-04T09:03:29.261Z,2.45
2023-02-04T09:05:55.715Z,2.35
2023-02-04T09:08:22.181Z,2.55
2023-02-04T09:10:49.336Z,3.05
2023-02-04T09:13:15.869Z,3.05
2023-02-04T09:15:42.322Z,2.67
2023-02-04T09:18:16.606Z,2.17
2023-02-04T09:20:46.652Z,2.13
2023-02-04T09:23:13.574Z,2.92
2023-02-04T09:25:41.283Z,4.43
2023-02-04T09:28:11.585Z,1.83
2023-02-04T09:30:40.005Z,4.95
2023-02-04T09:33:07.596Z,1.55
2023-02-04T09:35:34.147Z,2.15
2023-02-04T09:38:02.135Z,2.05
2023-02-04T09:40:32.468Z,3.30
2023-02-04T09:42:59.385Z,2.00
2023-02-04T09:45:29.785Z,7.32
2023-02-04T09:47:58.703Z,2.45
2023-02-04T09:50:28.093Z,3.83
2023-02-04T09:52:57.858Z,3.78
2023-02-04T09:55:38.046Z,2.83
2023-02-04T09:58:17.426Z,2.65
2023-02-04T10:00:45.605Z,2.20
2023-02-04T10:03:17.489Z,2.95
2023-02-04T10:05:46.256Z,3.05
2023-02-04T10:08:19.042Z,3.05
2023-02-04T10:10:46.818Z,2.80
2023-02-04T10:13:20.367Z,5.43
2023-02-04T10:15:48.912Z,2.42
2023-02-04T10:18:26.575Z,1.77
2023-02-04T10:21:00.880Z,5.38
2023-02-04T10:23:27.373Z,3.35
2023-02-04T10:25:53.835Z,4.75
2023-02-04T10:28:20.524Z,6.50
2023-02-04T10:30:47.267Z,6.50
2023-02-04T10:33:27.262Z,7.30
2023-02-04T10:35:56.777Z,4.35
2023-02-04T10:38:24.171Z,7.28
2023-02-04T10:41:07.304Z,2.78
2023-02-04T10:43:33.725Z,3.50
2023-02-04T10:46:02.052Z,3.78
2023-02-04T10:48:30.378Z,6.55
2023-02-04T10:50:58.954Z,6.15
2023-02-04T10:53:45.477Z,3.10
2023-02-04T10:56:18.543Z,3.63
2023-02-04T10:58:45.871Z,7.47
2023-02-04T11:01:14.596Z,8.38
2023-02-04T11:03:47.647Z,3.63
2023-02-04T11:06:21.275Z,6.95
2023-02-04T11:08:48.559Z,3.70
2023-02-04T11:11:19.263Z,4.28
2023-02-04T11:13:51.963Z,5.18
2023-02-04T11:16:18.587Z,3.80
2023-02-04T11:18:49.427Z,2.00
2023-02-04T11:21:36.079Z,1.60
2023-02-04T11:24:11.465Z,3.35
2023-02-04T11:26:40.206Z,4.43
2023-02-04T11:29:06.567Z,2.00
2023-02-04T11:31:33.059Z,2.33
2023-02-04T11:34:12.308Z,1.75
2023-02-04T11:36:59.791Z,1.55
2023-02-04T11:39:38.362Z,2.42
2023-02-04T11:42:14.468Z,2.58
2023-02-04T11:44:40.911Z,1.67
2023-02-04T11:47:09.304Z,7.50
2023-02-04T11:49:37.011Z,2.17
2023-02-04T11:52:11.951Z,7.93
2023-02-04T11:54:38.410Z,3.72
2023-02-04T11:57:05.539Z,2.88
2023-02-04T11:59:32.584Z,3.30
2023-02-04T12:02:15.103Z,2.92
2023-02-04T12:04:55.624Z,5.85
2023-02-04T12:07:28.183Z,2.97
2023-02-04T12:09:55.862Z,5.53
2023-02-04T12:12:29.206Z,2.30
2023-02-04T12:15:04.808Z,3.33
2023-02-04T12:17:31.469Z,2.22
2023-02-04T12:19:58.467Z,5.72
2023-02-04T12:22:24.981Z,3.33
2023-02-04T12:24:52.461Z,1.83
2023-02-04T12:27:19.381Z,1.40
2023-02-04T12:29:45.909Z,1.75
2023-02-04T12:32:12.490Z,2.17
2023-02-04T12:34:38.976Z,2.55
2023-02-04T12:37:05.628Z,4.78
2023-02-04T12:39:32.059Z,8.43
2023-02-04T12:41:58.890Z,3.97
2023-02-04T12:44:25.472Z,1.83
2023-02-04T12:46:52.175Z,3.72
2023-02-04T12:49:18.734Z,2.97
2023-02-04T12:51:45.199Z,1.52
2023-02-04T12:54:11.621Z,4.00
2023-02-04T12:56:38.022Z,3.92
2023-02-04T12:59:07.671Z,2.45
2023-02-04T13:01:34.181Z,4.40
2023-02-04T13:04:00.658Z,3.83
2023-02-04T13:06:27.095Z,1.67
2023-02-04T13:08:53.536Z,4.20
2023-02-04T13:11:19.951Z,3.70
2023-02-04T13:13:46.358Z,5.35
2023-02-04T13:16:12.879Z,2.38
2023-02-04T13:18:39.297Z,4.07
2023-02-04T13:21:05.714Z,2.10
2023-02-04T13:23:32.138Z,6.28
2023-02-04T13:26:00.720Z,3.17
2023-02-04T13:28:27.365Z,4.03
2023-02-04T13:30:53.868Z,2.90
2023-02-04T13:33:20.282Z,2.38
2023-02-04T13:35:46.718Z,3.20
2023-02-04T13:38:13.175Z,3.90
2023-02-04T13:40:39.597Z,5.95
2023-02-04T13:43:06.168Z,2.53
2023-02-04T13:45:32.926Z,3.45
2023-02-04T13:47:59.629Z,3.33
2023-02-04T13:50:26.282Z,4.85
2023-02-04T13:52:52.707Z,3.58
2023-02-04T13:55:19.121Z,4.60
2023-02-04T13:57:45.998Z,3.90
2023-02-04T14:00:13.106Z,2.97
2023-02-04T14:02:39.748Z,2.28
2023-02-04T14:05:06.865Z,3.33
2023-02-04T14:07:34.124Z,4.47
2023-02-04T14:10:00.595Z,4.90
2023-02-04T14:12:27.086Z,2.42
2023-02-04T14:14:53.813Z,5.85
2023-02-04T14:17:20.310Z,3.83
2023-02-04T14:19:46.749Z,13.13
2023-02-04T14:22:13.704Z,11.30
2023-02-04T14:24:42.601Z,3.03
2023-02-04T14:27:09.933Z,2.47
2023-02-04T14:29:36.474Z,3.72
2023-02-04T14:32:03.448Z,2.33
2023-02-04T14:34:30.026Z,2.20
2023-02-04T14:36:56.475Z,3.28
2023-02-04T14:39:23.069Z,4.88
2023-02-04T14:41:49.505Z,3.10
2023-02-04T14:44:20.911Z,2.83
2023-02-04T14:46:48.968Z,2.30
2023-02-04T14:49:16.822Z,1.77
2023-02-04T14:51:44.056Z,3.72
2023-02-04T14:54:11.095Z,2.85
2023-02-04T14:56:37.552Z,1.25
2023-02-04T14:59:04.155Z,2.25
2023-02-04T15:01:31.102Z,1.95
2023-02-04T15:03:58.362Z,1.52
2023-02-04T15:06:24.987Z,2.33
2023-02-04T15:08:54.648Z,3.53
2023-02-04T15:11:21.066Z,2.72
2023-02-04T15:13:47.500Z,3.33
2023-02-04T15:16:14.826Z,3.65
2023-02-04T15:18:42.584Z,2.80
2023-02-04T15:21:09.525Z,3.65
2023-02-04T15:23:36.334Z,6.28
2023-02-04T15:26:03.621Z,3.47
2023-02-04T15:28:31.021Z,2.63
2023-02-04T15:30:57.773Z,1.88
2023-02-04T15:33:24.290Z,2.88
2023-02-04T15:35:50.734Z,5.53
2023-02-04T15:38:17.155Z,4.22
2023-02-04T15:40:43.568Z,6.95
2023-02-04T15:43:09.980Z,7.82
2023-02-04T15:45:41.332Z,4.97
2023-02-04T15:48:08.490Z,19.02
2023-02-04T15:50:35.669Z,11.60
2023-02-04T15:53:02.625Z,13.02
2023-02-04T15:55:29.319Z,5.15
2023-02-04T15:57:55.916Z,13.93
2023-02-04T16:00:23.028Z,21.95
2023-02-04T16:02:49.677Z,25.30
2023-02-04T16:05:16.686Z,18.33
2023-02-04T16:07:43.193Z,17.52
2023-02-04T16:10:09.953Z,12.32
2023-02-04T16:12:36.572Z,8.20
2023-02-04T16:15:03.123Z,7.30
2023-02-04T16:17:29.623Z,5.93
2023-02-04T16:19:56.969Z,5.43
2023-02-04T16:22:23.730Z,8.10
2023-02-04T16:24:52.753Z,6.55
2023-02-04T16:27:19.771Z,8.48
2023-02-04T16:29:46.380Z,10.15
2023-02-04T16:32:12.884Z,14.30
2023-02-04T16:34:39.330Z,14.48
2023-02-04T16:37:05.891Z,16.45
2023-02-04T16:39:32.387Z,15.48
2023-02-04T16:41:58.820Z,12.88
2023-02-04T16:44:25.394Z,16.27
2023-02-04T16:46:51.854Z,8.35
2023-02-04T16:49:18.508Z,6.35
2023-02-04T16:51:44.983Z,9.75
2023-02-04T16:54:11.499Z,9.02
2023-02-04T16:56:37.997Z,5.57
2023-02-04T16:59:04.836Z,9.18
2023-02-04T17:01:31.574Z,6.63
2023-02-04T17:03:58.423Z,10.55
2023-02-04T17:06:30.222Z,9.73
2023-02-04T17:08:57.159Z,10.18
2023-02-04T17:11:30.065Z,13.45
2023-02-04T17:14:00.913Z,10.60
2023-02-04T17:16:29.313Z,13.52
2023-02-04T17:18:55.919Z,11.57
2023-02-04T17:21:26.769Z,11.65
2023-02-04T17:23:56.376Z,14.30
2023-02-04T17:26:24.248Z,15.07
2023-02-04T17:28:51.237Z,13.73
2023-02-04T17:31:17.741Z,11.10
2023-02-04T17:33:44.251Z,16.60
2023-02-04T17:36:13.625Z,22.95
2023-02-04T17:38:40.105Z,12.73
2023-02-04T17:41:06.548Z,13.38
2023-02-04T17:43:34.352Z,17.23
2023-02-04T17:46:00.818Z,13.15
2023-02-04T17:48:27.255Z,13.98
2023-02-04T17:50:53.669Z,10.00
2023-02-04T17:53:20.591Z,20.20
2023-02-04T17:55:47.014Z,17.65
2023-02-04T17:58:25.342Z,29.45
2023-02-04T18:00:53.441Z,19.50
2023-02-04T18:03:22.744Z,15.57
2023-02-04T18:05:51.905Z,20.17
2023-02-04T18:08:22.853Z,22.38
2023-02-04T18:10:51.010Z,18.88
2023-02-04T18:13:19.608Z,21.27
2023-02-04T18:15:55.312Z,16.52
2023-02-04T18:18:31.741Z,20.20
2023-02-04T18:21:23.838Z,25.73
2023-02-04T18:24:09.020Z,13.32
2023-02-04T18:26:44.098Z,12.73
2023-02-04T18:29:40.990Z,11.90
2023-02-04T18:32:22.283Z,12.93
2023-02-04T18:34:55.057Z,15.95
2023-02-04T18:37:23.828Z,16.30
2023-02-04T18:39:50.607Z,15.50
2023-02-04T18:42:24.483Z,15.55
2023-02-04T18:44:52.526Z,17.45
2023-02-04T18:47:31.799Z,14.63
2023-02-04T18:50:15.421Z,21.05
2023-02-04T18:52:43.417Z,18.20
2023-02-04T18:55:34.818Z,16.33
2023-02-04T18:58:16.978Z,18.73
2023-02-04T19:00:49.254Z,18.10
2023-02-04T19:03:26.830Z,13.77
2023-02-04T19:05:54.950Z,8.35
2023-02-04T19:08:23.037Z,10.98
2023-02-04T19:10:51.499Z,36.42
2023-02-04T19:13:25.807Z,24.27
2023-02-04T19:16:18.895Z,16.98
2023-02-04T19:18:47.113Z,17.60
2023-02-04T19:21:21.800Z,34.17
2023-02-04T19:23:50.469Z,61.38
2023-02-04T19:26:32.231Z,27.30
2023-02-04T19:28:58.899Z,27.25
2023-02-04T19:31:34.567Z,10.68
2023-02-04T19:34:18.145Z,12.88
2023-02-04T19:36:44.843Z,13.40
2023-02-04T19:39:35.383Z,13.27
2023-02-04T19:42:02.265Z,15.32
2023-02-04T19:44:42.366Z,14.85
2023-02-04T19:47:25.597Z,15.80
2023-02-04T19:50:00.459Z,18.75
2023-02-04T19:52:34.979Z,15.15
2023-02-04T19:55:25.451Z,15.70
2023-02-04T19:57:54.973Z,17.88
2023-02-04T20:00:22.697Z,17.80
2023-02-04T20:02:49.132Z,19.23
2023-02-04T20:05:20.912Z,55.72
2023-02-04T20:07:47.373Z,46.17
2023-02-04T20:10:26.597Z,20.55
2023-02-04T20:13:00.566Z,18.65
2023-02-04T20:15:27.019Z,23.83
2023-02-04T20:17:53.750Z,16.73
2023-02-04T20:20:24.190Z,18.30
2023-02-04T20:23:17.864Z,17.58
2023-02-04T20:25:48.270Z,19.27
2023-02-04T20:28:31.079Z,19.08
2023-02-04T20:31:00.604Z,17.58
2023-02-04T20:33:33.659Z,10.68
2023-02-04T20:36:21.314Z,12.82
2023-02-04T20:38:47.715Z,10.00
2023-02-04T20:41:22.511Z,8.05
2023-02-04T20:43:50.228Z,10.60
2023-02-04T20:46:26.112Z,28.52
2023-02-04T20:48:52.817Z,23.02
2023-02-04T20:51:26.718Z,34.47
2023-02-04T20:53:55.421Z,31.52
2023-02-04T20:56:28.182Z,27.58
2023-02-04T20:59:02.867Z,26.30
2023-02-04T21:01:48.869Z,18.77
2023-02-04T21:04:39.157Z,16.05
2023-02-04T21:07:20.519Z,14.85
2023-02-04T21:09:48.210Z,19.90
2023-02-04T21:12:15.789Z,13.88
2023-02-04T21:14:42.214Z,24.02
2023-02-04T21:17:08.807Z,14.95
2023-02-04T21:19:35.416Z,16.30
2023-02-04T21:22:02.132Z,16.20
2023-02-04T21:24:32.109Z,15.52
2023-02-04T21:26:58.623Z,16.33
2023-02-04T21:29:26.140Z,19.08
2023-02-04T21:31:54.400Z,17.08
2023-02-04T21:34:21.076Z,16.65
2023-02-04T21:36:47.658Z,16.98
2023-02-04T21:39:14.117Z,18.40
2023-02-04T21:41:40.543Z,23.75
2023-02-04T21:44:06.971Z,23.08
2023-02-04T21:46:33.485Z,21.95
2023-02-04T21:49:00.814Z,22.45
2023-02-04T21:51:28.081Z,19.88
2023-02-04T21:53:54.494Z,18.63
2023-02-04T21:56:20.945Z,16.58
2023-02-04T21:58:47.359Z,17.50
2023-02-04T22:01:13.810Z,13.73
2023-02-04T22:03:40.411Z,14.25
2023-02-04T22:06:07.336Z,10.88
2023-02-04T22:08:33.818Z,12.20
2023-02-04T22:11:00.552Z,10.88
2023-02-04T22:13:26.994Z,8.50
2023-02-04T22:15:53.471Z,8.38
2023-02-04T22:18:20.768Z,16.75
2023-02-04T22:20:47.192Z,13.48
2023-02-04T22:23:13.666Z,13.73
2023-02-04T22:25:40.040Z,16.27
2023-02-04T22:28:07.049Z,13.70
2023-02-04T22:30:33.554Z,9.52
2023-02-04T22:33:01.609Z,12.35
2023-02-04T22:35:29.841Z,6.03
2023-02-04T22:38:00.046Z,7.88
2023-02-04T22:40:28.157Z,11.35
2023-02-04T22:42:54.613Z,16.98
2023-02-04T22:47:48.741Z,15.95
2023-02-04T22:50:15.247Z,22.20
2023-02-04T22:52:43.805Z,23.17
2023-02-04T22:55:10.619Z,24.40
2023-02-04T22:57:37.128Z,18.60
2023-02-04T23:00:09.087Z,21.75
2023-02-04T23:02:35.656Z,25.90
2023-02-04T23:05:02.712Z,23.30
2023-02-04T23:07:29.223Z,21.92
2023-02-04T23:09:55.648Z,26.08
2023-02-04T23:12:22.298Z,23.38
2023-02-04T23:14:49.689Z,25.17
2023-02-04T23:17:17.878Z,23.60
2023-02-04T23:19:44.777Z,23.63
2023-02-04T23:22:12.870Z,23.88
2023-02-04T23:24:40.512Z,27.35
2023-02-04T23:27:08.280Z,26.50
2023-02-04T23:29:37.334Z,20.20
2023-02-04T23:32:04.440Z,12.88
2023-02-04T23:34:31.490Z,11.77
2023-02-04T23:36:58.034Z,7.32
2023-02-04T23:39:24.464Z,9.18
2023-02-04T23:41:50.995Z,8.95
2023-02-04T23:44:17.947Z,9.10
2023-02-04T23:46:44.399Z,8.70
2023-02-04T23:49:11.043Z,8.52
2023-02-04T23:51:37.574Z,5.93
2023-02-04T23:54:04.488Z,8.55
2023-02-04T23:56:30.885Z,5.32
2023-02-04T23:58:57.292Z,6.25
